sensor_id;sensor_type;location;lat;lon;timestamp;pressure;altitude;pressure_sealevel;temperature;humidity
20624;BME280;10471;42.736;23.346;2022-09-16T00:01:16;95024.22;;;18.99;100.00
20624;BME280;10471;42.736;23.346;2022-09-16T00:03:42;95028.69;;;18.95;100.00
20624;BME280;10471;42.736;23.346;2022-09-16T00:06:34;95024.31;;;18.90;100.00
20624;BME280;10471;42.736;23.346;2022-09-16T00:08:59;95027.91;;;18.82;100.00
20624;BME280;10471;42.736;23.346;2022-09-16T00:11:25;95019.88;;;18.70;100.00
20624;BME280;10471;42.736;23.346;2022-09-16T00:13:50;95026.56;;;18.64;100.00
20624;BME280;10471;42.736;23.346;2022-09-16T00:16:19;95027.69;;;18.63;100.00
20624;BME280;10471;42.736;23.346;2022-09-16T00:18:45;95027.22;;;18.61;100.00
20624;BME280;10471;42.736;23.346;2022-09-16T00:21:11;95033.69;;;18.60;100.00
20624;BME280;10471;42.736;23.346;2022-09-16T00:23:36;95038.59;;;18.58;100.00
20624;BME280;10471;42.736;23.346;2022-09-16T00:26:02;95032.13;;;18.59;100.00
20624;BME280;10471;42.736;23.346;2022-09-16T00:28:29;95029.66;;;18.54;100.00
20624;BME280;10471;42.736;23.346;2022-09-16T00:30:58;95025.00;;;18.51;100.00
20624;BME280;10471;42.736;23.346;2022-09-16T00:33:24;95022.56;;;18.46;100.00
20624;BME280;10471;42.736;23.346;2022-09-16T00:35:50;95030.91;;;18.45;100.00
20624;BME280;10471;42.736;23.346;2022-09-16T00:38:15;95020.09;;;18.42;100.00
20624;BME280;10471;42.736;23.346;2022-09-16T00:40:45;95007.75;;;18.37;100.00
20624;BME280;10471;42.736;23.346;2022-09-16T00:43:13;95017.66;;;18.37;100.00
20624;BME280;10471;42.736;23.346;2022-09-16T00:45:39;95024.09;;;18.36;100.00
20624;BME280;10471;42.736;23.346;2022-09-16T00:48:07;95028.97;;;18.34;100.00
20624;BME280;10471;42.736;23.346;2022-09-16T00:50:34;95021.31;;;18.32;100.00
20624;BME280;10471;42.736;23.346;2022-09-16T00:53:04;95025.19;;;18.35;100.00
20624;BME280;10471;42.736;23.346;2022-09-16T00:55:31;95024.78;;;18.33;100.00
20624;BME280;10471;42.736;23.346;2022-09-16T00:58:04;95026.75;;;18.36;100.00
20624;BME280;10471;42.736;23.346;2022-09-16T01:00:31;95025.75;;;18.28;100.00
20624;BME280;10471;42.736;23.346;2022-09-16T01:02:56;95033.88;;;18.32;100.00
20624;BME280;10471;42.736;23.346;2022-09-16T01:05:24;95037.31;;;18.32;100.00
20624;BME280;10471;42.736;23.346;2022-09-16T01:07:52;95037.09;;;18.25;100.00
20624;BME280;10471;42.736;23.346;2022-09-16T01:10:21;95048.28;;;18.19;100.00
20624;BME280;10471;42.736;23.346;2022-09-16T01:12:52;95047.66;;;18.22;100.00
20624;BME280;10471;42.736;23.346;2022-09-16T01:15:21;95050.75;;;18.24;100.00
20624;BME280;10471;42.736;23.346;2022-09-16T01:29:10;95041.34;;;18.18;100.00
20624;BME280;10471;42.736;23.346;2022-09-16T01:39:52;95031.00;;;18.04;100.00
20624;BME280;10471;42.736;23.346;2022-09-16T01:42:44;95024.44;;;18.02;100.00
20624;BME280;10471;42.736;23.346;2022-09-16T01:45:38;95022.41;;;17.99;100.00
20624;BME280;10471;42.736;23.346;2022-09-16T01:56:25;95043.50;;;17.92;100.00
20624;BME280;10471;42.736;23.346;2022-09-16T01:59:17;95037.75;;;17.90;100.00
20624;BME280;10471;42.736;23.346;2022-09-16T02:02:02;95027.72;;;17.87;100.00
20624;BME280;10471;42.736;23.346;2022-09-16T02:04:33;95029.34;;;17.79;100.00
20624;BME280;10471;42.736;23.346;2022-09-16T02:07:03;95017.91;;;17.79;100.00
20624;BME280;10471;42.736;23.346;2022-09-16T02:09:33;95023.88;;;17.76;100.00
20624;BME280;10471;42.736;23.346;2022-09-16T02:12:07;95023.78;;;17.73;100.00
20624;BME280;10471;42.736;23.346;2022-09-16T02:14:38;95014.56;;;17.70;100.00
20624;BME280;10471;42.736;23.346;2022-09-16T02:17:10;95017.66;;;17.72;100.00
20624;BME280;10471;42.736;23.346;2022-09-16T02:19:51;95024.09;;;17.71;100.00
20624;BME280;10471;42.736;23.346;2022-09-16T02:22:27;95022.34;;;17.75;100.00
20624;BME280;10471;42.736;23.346;2022-09-16T02:24:54;95010.38;;;17.81;100.00
20624;BME280;10471;42.736;23.346;2022-09-16T02:27:22;95012.03;;;17.85;100.00
20624;BME280;10471;42.736;23.346;2022-09-16T02:29:51;95019.72;;;17.87;100.00
20624;BME280;10471;42.736;23.346;2022-09-16T02:32:19;95016.75;;;17.88;100.00
20624;BME280;10471;42.736;23.346;2022-09-16T02:34:49;95012.16;;;17.89;100.00
20624;BME280;10471;42.736;23.346;2022-09-16T02:37:39;95011.72;;;17.87;100.00
20624;BME280;10471;42.736;23.346;2022-09-16T02:40:14;95025.38;;;17.85;100.00
20624;BME280;10471;42.736;23.346;2022-09-16T02:42:41;95012.03;;;17.85;100.00
20624;BME280;10471;42.736;23.346;2022-09-16T02:45:07;95013.47;;;17.83;100.00
20624;BME280;10471;42.736;23.346;2022-09-16T02:47:45;95024.16;;;17.83;100.00
20624;BME280;10471;42.736;23.346;2022-09-16T02:50:24;95032.81;;;17.80;100.00
20624;BME280;10471;42.736;23.346;2022-09-16T02:53:10;95026.97;;;17.66;100.00
20624;BME280;10471;42.736;23.346;2022-09-16T02:58:09;95054.09;;;17.68;100.00
20624;BME280;10471;42.736;23.346;2022-09-16T03:00:39;95040.41;;;17.70;100.00
20624;BME280;10471;42.736;23.346;2022-09-16T03:03:07;95046.97;;;17.72;100.00
20624;BME280;10471;42.736;23.346;2022-09-16T03:05:32;95043.63;;;17.63;100.00
20624;BME280;10471;42.736;23.346;2022-09-16T03:07:59;95046.75;;;17.65;100.00
20624;BME280;10471;42.736;23.346;2022-09-16T03:10:35;95047.19;;;17.67;100.00
20624;BME280;10471;42.736;23.346;2022-09-16T03:15:32;95059.00;;;17.78;100.00
20624;BME280;10471;42.736;23.346;2022-09-16T03:18:23;95069.47;;;17.83;100.00
20624;BME280;10471;42.736;23.346;2022-09-16T03:31:08;95072.88;;;18.04;100.00
20624;BME280;10471;42.736;23.346;2022-09-16T03:33:40;95058.44;;;18.05;100.00
20624;BME280;10471;42.736;23.346;2022-09-16T03:36:13;95041.78;;;18.08;100.00
20624;BME280;10471;42.736;23.346;2022-09-16T03:38:40;95045.81;;;18.14;100.00
20624;BME280;10471;42.736;23.346;2022-09-16T03:41:07;95057.78;;;18.08;100.00
20624;BME280;10471;42.736;23.346;2022-09-16T03:43:34;95044.91;;;18.10;100.00
20624;BME280;10471;42.736;23.346;2022-09-16T03:45:59;95059.59;;;18.16;100.00
20624;BME280;10471;42.736;23.346;2022-09-16T03:48:25;95067.28;;;18.17;100.00
20624;BME280;10471;42.736;23.346;2022-09-16T03:50:50;95057.53;;;18.21;100.00
20624;BME280;10471;42.736;23.346;2022-09-16T03:53:15;95060.66;;;18.23;100.00
20624;BME280;10471;42.736;23.346;2022-09-16T03:55:41;95020.75;;;18.27;100.00
20624;BME280;10471;42.736;23.346;2022-09-16T03:58:07;95026.50;;;18.29;100.00
20624;BME280;10471;42.736;23.346;2022-09-16T04:00:32;95040.88;;;18.24;100.00
20624;BME280;10471;42.736;23.346;2022-09-16T04:02:58;95048.41;;;18.22;100.00
20624;BME280;10471;42.736;23.346;2022-09-16T04:05:24;95062.09;;;18.21;100.00
20624;BME280;10471;42.736;23.346;2022-09-16T04:07:50;95065.53;;;18.21;100.00
20624;BME280;10471;42.736;23.346;2022-09-16T04:10:16;95067.28;;;18.17;100.00
20624;BME280;10471;42.736;23.346;2022-09-16T04:12:42;95064.81;;;18.12;100.00
20624;BME280;10471;42.736;23.346;2022-09-16T04:15:07;95076.25;;;18.13;100.00
20624;BME280;10471;42.736;23.346;2022-09-16T04:17:33;95072.47;;;18.14;100.00
20624;BME280;10471;42.736;23.346;2022-09-16T04:19:59;95060.56;;;18.11;100.00
20624;BME280;10471;42.736;23.346;2022-09-16T04:22:27;95070.34;;;18.07;100.00
20624;BME280;10471;42.736;23.346;2022-09-16T04:24:54;95073.69;;;18.04;100.00
20624;BME280;10471;42.736;23.346;2022-09-16T04:27:19;95078.63;;;17.94;100.00
20624;BME280;10471;42.736;23.346;2022-09-16T04:29:45;95069.06;;;17.93;100.00
20624;BME280;10471;42.736;23.346;2022-09-16T04:32:10;95076.84;;;17.86;100.00
20624;BME280;10471;42.736;23.346;2022-09-16T04:34:36;95080.84;;;17.92;100.00
20624;BME280;10471;42.736;23.346;2022-09-16T04:37:01;95085.34;;;17.79;100.00
20624;BME280;10471;42.736;23.346;2022-09-16T04:39:26;95084.56;;;17.79;100.00
20624;BME280;10471;42.736;23.346;2022-09-16T04:41:52;95087.25;;;17.79;100.00
20624;BME280;10471;42.736;23.346;2022-09-16T04:44:17;95098.81;;;17.83;100.00
20624;BME280;10471;42.736;23.346;2022-09-16T04:46:43;95103.59;;;17.89;100.00
20624;BME280;10471;42.736;23.346;2022-09-16T04:49:09;95104.00;;;18.00;100.00
20624;BME280;10471;42.736;23.346;2022-09-16T04:51:36;95098.25;;;18.10;100.00
20624;BME280;10471;42.736;23.346;2022-09-16T04:54:02;95096.16;;;18.15;100.00
20624;BME280;10471;42.736;23.346;2022-09-16T04:56:30;95103.00;;;18.25;100.00
20624;BME280;10471;42.736;23.346;2022-09-16T04:58:59;95100.13;;;18.30;100.00
20624;BME280;10471;42.736;23.346;2022-09-16T05:01:30;95092.94;;;18.42;100.00
20624;BME280;10471;42.736;23.346;2022-09-16T05:03:58;95097.63;;;18.57;100.00
20624;BME280;10471;42.736;23.346;2022-09-16T05:06:26;95086.53;;;18.67;100.00
20624;BME280;10471;42.736;23.346;2022-09-16T05:08:53;95082.31;;;18.78;100.00
20624;BME280;10471;42.736;23.346;2022-09-16T05:11:21;95080.34;;;18.87;100.00
20624;BME280;10471;42.736;23.346;2022-09-16T05:13:47;95072.63;;;18.97;100.00
20624;BME280;10471;42.736;23.346;2022-09-16T05:16:14;95072.69;;;19.09;100.00
20624;BME280;10471;42.736;23.346;2022-09-16T05:18:41;95080.47;;;19.14;100.00
20624;BME280;10471;42.736;23.346;2022-09-16T05:21:10;95069.19;;;19.20;100.00
20624;BME280;10471;42.736;23.346;2022-09-16T05:23:36;95068.41;;;19.32;100.00
20624;BME280;10471;42.736;23.346;2022-09-16T05:26:07;95066.06;;;19.42;100.00
20624;BME280;10471;42.736;23.346;2022-09-16T05:28:34;95072.28;;;19.58;100.00
20624;BME280;10471;42.736;23.346;2022-09-16T05:31:22;95072.88;;;19.79;100.00
20624;BME280;10471;42.736;23.346;2022-09-16T05:33:55;95068.25;;;19.91;100.00
20624;BME280;10471;42.736;23.346;2022-09-16T05:36:20;95058.84;;;20.09;100.00
20624;BME280;10471;42.736;23.346;2022-09-16T05:38:46;95056.72;;;20.15;100.00
20624;BME280;10471;42.736;23.346;2022-09-16T05:41:11;95060.28;;;20.34;100.00
20624;BME280;10471;42.736;23.346;2022-09-16T05:43:37;95059.00;;;20.43;100.00
20624;BME280;10471;42.736;23.346;2022-09-16T05:46:04;95048.47;;;20.50;95.09
20624;BME280;10471;42.736;23.346;2022-09-16T05:48:30;95043.56;;;20.52;96.59
20624;BME280;10471;42.736;23.346;2022-09-16T05:50:59;95049.00;;;20.56;99.31
20624;BME280;10471;42.736;23.346;2022-09-16T05:53:28;95053.41;;;20.64;100.00
20624;BME280;10471;42.736;23.346;2022-09-16T05:55:59;95048.22;;;20.71;100.00
20624;BME280;10471;42.736;23.346;2022-09-16T05:58:26;95046.63;;;20.82;99.94
20624;BME280;10471;42.736;23.346;2022-09-16T06:01:00;95048.78;;;20.92;99.04
20624;BME280;10471;42.736;23.346;2022-09-16T06:03:27;95052.91;;;21.05;97.87
20624;BME280;10471;42.736;23.346;2022-09-16T06:06:10;95050.53;;;21.18;96.71
20624;BME280;10471;42.736;23.346;2022-09-16T06:08:37;95056.22;;;21.32;95.30
20624;BME280;10471;42.736;23.346;2022-09-16T06:11:04;95058.09;;;21.47;97.64
20624;BME280;10471;42.736;23.346;2022-09-16T06:13:30;95054.34;;;21.67;99.31
20624;BME280;10471;42.736;23.346;2022-09-16T06:15:56;95057.53;;;21.73;95.39
20624;BME280;10471;42.736;23.346;2022-09-16T06:18:23;95059.28;;;21.84;91.76
20624;BME280;10471;42.736;23.346;2022-09-16T06:20:49;95056.03;;;21.94;91.72
20624;BME280;10471;42.736;23.346;2022-09-16T06:23:16;95058.59;;;22.06;93.78
20624;BME280;10471;42.736;23.346;2022-09-16T06:25:41;95056.47;;;22.15;94.17
20624;BME280;10471;42.736;23.346;2022-09-16T06:28:07;95047.81;;;22.25;94.63
20624;BME280;10471;42.736;23.346;2022-09-16T06:30:34;95044.94;;;22.33;91.77
20624;BME280;10471;42.736;23.346;2022-09-16T06:32:59;95042.72;;;22.39;92.00
20624;BME280;10471;42.736;23.346;2022-09-16T06:35:25;95043.53;;;22.39;93.47
20624;BME280;10471;42.736;23.346;2022-09-16T06:37:50;95037.50;;;22.45;96.44
20624;BME280;10471;42.736;23.346;2022-09-16T06:40:15;95044.50;;;22.50;94.31
20624;BME280;10471;42.736;23.346;2022-09-16T06:42:41;95041.44;;;22.51;91.27
20624;BME280;10471;42.736;23.346;2022-09-16T06:45:07;95051.47;;;22.54;89.24
20624;BME280;10471;42.736;23.346;2022-09-16T06:47:32;95051.91;;;22.56;90.03
20624;BME280;10471;42.736;23.346;2022-09-16T06:49:59;95063.19;;;22.65;92.87
20624;BME280;10471;42.736;23.346;2022-09-16T06:52:25;95060.31;;;22.77;92.47
20624;BME280;10471;42.736;23.346;2022-09-16T06:54:50;95059.78;;;22.91;89.82
20624;BME280;10471;42.736;23.346;2022-09-16T06:57:16;95056.97;;;23.06;83.25
20624;BME280;10471;42.736;23.346;2022-09-16T06:59:44;95053.78;;;23.23;78.90
20624;BME280;10471;42.736;23.346;2022-09-16T07:02:09;95055.97;;;23.40;78.56
20624;BME280;10471;42.736;23.346;2022-09-16T07:04:36;95056.28;;;23.61;74.28
20624;BME280;10471;42.736;23.346;2022-09-16T07:07:01;95056.91;;;23.77;67.26
20624;BME280;10471;42.736;23.346;2022-09-16T07:09:27;95063.22;;;23.91;67.43
20624;BME280;10471;42.736;23.346;2022-09-16T07:11:53;95064.56;;;24.04;67.46
20624;BME280;10471;42.736;23.346;2022-09-16T07:14:19;95058.41;;;24.07;59.08
20624;BME280;10471;42.736;23.346;2022-09-16T07:16:45;95055.06;;;24.17;58.57
20624;BME280;10471;42.736;23.346;2022-09-16T07:19:10;95058.72;;;24.31;61.04
20624;BME280;10471;42.736;23.346;2022-09-16T07:21:35;95047.22;;;24.38;58.56
20624;BME280;10471;42.736;23.346;2022-09-16T07:24:02;95048.19;;;24.52;61.19
20624;BME280;10471;42.736;23.346;2022-09-16T07:26:29;95045.16;;;24.57;58.68
20624;BME280;10471;42.736;23.346;2022-09-16T07:28:58;95052.97;;;24.69;59.13
20624;BME280;10471;42.736;23.346;2022-09-16T07:31:26;95050.75;;;24.78;58.36
20624;BME280;10471;42.736;23.346;2022-09-16T07:33:54;95048.50;;;24.87;56.96
20624;BME280;10471;42.736;23.346;2022-09-16T07:36:23;95050.09;;;24.91;56.52
20624;BME280;10471;42.736;23.346;2022-09-16T07:38:50;95052.47;;;25.00;54.74
20624;BME280;10471;42.736;23.346;2022-09-16T07:41:18;95050.19;;;25.02;55.07
20624;BME280;10471;42.736;23.346;2022-09-16T07:43:43;95035.22;;;25.08;53.31
20624;BME280;10471;42.736;23.346;2022-09-16T07:46:11;95021.31;;;25.06;53.41
20624;BME280;10471;42.736;23.346;2022-09-16T07:48:37;95023.28;;;25.09;52.81
20624;BME280;10471;42.736;23.346;2022-09-16T07:53:31;95020.34;;;25.27;53.46
20624;BME280;10471;42.736;23.346;2022-09-16T07:56:03;95028.59;;;25.48;53.53
20624;BME280;10471;42.736;23.346;2022-09-16T07:58:29;95035.19;;;25.58;50.56
20624;BME280;10471;42.736;23.346;2022-09-16T08:00:55;95024.56;;;25.85;53.37
20624;BME280;10471;42.736;23.346;2022-09-16T08:03:20;95013.44;;;26.04;51.04
20624;BME280;10471;42.736;23.346;2022-09-16T08:05:46;95014.66;;;26.21;49.43
20624;BME280;10471;42.736;23.346;2022-09-16T08:08:11;95001.97;;;26.39;50.13
20624;BME280;10471;42.736;23.346;2022-09-16T08:10:37;95000.88;;;26.60;47.67
20624;BME280;10471;42.736;23.346;2022-09-16T08:13:03;95004.34;;;26.78;46.92
20624;BME280;10471;42.736;23.346;2022-09-16T08:15:29;95012.09;;;26.94;45.82
20624;BME280;10471;42.736;23.346;2022-09-16T08:17:54;94994.72;;;27.12;47.19
20624;BME280;10471;42.736;23.346;2022-09-16T08:20:20;94999.72;;;27.17;46.95
20624;BME280;10471;42.736;23.346;2022-09-16T08:22:45;95002.44;;;27.27;46.08
20624;BME280;10471;42.736;23.346;2022-09-16T08:25:10;94997.34;;;27.47;49.33
20624;BME280;10471;42.736;23.346;2022-09-16T08:27:36;94997.72;;;27.70;45.57
20624;BME280;10471;42.736;23.346;2022-09-16T08:30:03;94999.22;;;27.78;45.49
20624;BME280;10471;42.736;23.346;2022-09-16T08:32:28;94989.94;;;27.85;45.25
20624;BME280;10471;42.736;23.346;2022-09-16T08:34:55;94990.63;;;28.03;44.07
20624;BME280;10471;42.736;23.346;2022-09-16T08:37:20;94989.09;;;28.02;44.22
20624;BME280;10471;42.736;23.346;2022-09-16T08:39:46;94983.63;;;28.09;44.44
20624;BME280;10471;42.736;23.346;2022-09-16T08:42:56;94984.00;;;28.15;44.31
20624;BME280;10471;42.736;23.346;2022-09-16T08:50:39;94967.34;;;28.09;43.81
20624;BME280;10471;42.736;23.346;2022-09-16T08:53:12;94985.97;;;28.07;43.52
20624;BME280;10471;42.736;23.346;2022-09-16T08:55:44;94974.31;;;28.10;43.69
20624;BME280;10471;42.736;23.346;2022-09-16T09:00:45;94975.41;;;28.30;43.76
20624;BME280;10471;42.736;23.346;2022-09-16T09:05:56;94981.41;;;27.90;44.92
20624;BME280;10471;42.736;23.346;2022-09-16T09:13:46;94978.38;;;27.68;45.06
20624;BME280;10471;42.736;23.346;2022-09-16T09:25:20;94984.38;;;28.13;45.40
20624;BME280;10471;42.736;23.346;2022-09-16T09:31:38;94976.38;;;28.64;44.49
20624;BME280;10471;42.736;23.346;2022-09-16T09:37:14;94966.53;;;28.84;43.57
20624;BME280;10471;42.736;23.346;2022-09-16T09:39:56;94975.00;;;28.93;43.01
20624;BME280;10471;42.736;23.346;2022-09-16T09:42:35;94976.81;;;29.06;43.86
20624;BME280;10471;42.736;23.346;2022-09-16T09:45:15;94982.53;;;29.18;42.59
20624;BME280;10471;42.736;23.346;2022-09-16T09:47:47;94987.63;;;29.13;42.67
20624;BME280;10471;42.736;23.346;2022-09-16T09:53:28;94988.69;;;28.79;43.95
20624;BME280;10471;42.736;23.346;2022-09-16T09:56:19;94987.13;;;28.74;43.61
20624;BME280;10471;42.736;23.346;2022-09-16T09:58:59;94987.97;;;28.68;45.56
20624;BME280;10471;42.736;23.346;2022-09-16T10:01:27;94999.69;;;28.54;44.67
20624;BME280;10471;42.736;23.346;2022-09-16T10:03:52;95000.63;;;28.27;45.39
20624;BME280;10471;42.736;23.346;2022-09-16T10:06:29;95003.06;;;27.97;47.41
20624;BME280;10471;42.736;23.346;2022-09-16T10:08:58;95024.06;;;27.48;49.07
20624;BME280;10471;42.736;23.346;2022-09-16T10:11:29;95030.28;;;27.00;51.18
20624;BME280;10471;42.736;23.346;2022-09-16T10:14:00;95049.50;;;26.50;52.16
20624;BME280;10471;42.736;23.346;2022-09-16T10:16:36;95051.75;;;26.27;55.25
20624;BME280;10471;42.736;23.346;2022-09-16T10:19:23;95064.00;;;26.04;55.86
20624;BME280;10471;42.736;23.346;2022-09-16T10:22:20;95102.44;;;25.73;57.66
20624;BME280;10471;42.736;23.346;2022-09-16T10:24:56;95124.84;;;25.30;62.08
20624;BME280;10471;42.736;23.346;2022-09-16T10:27:29;95156.16;;;24.66;68.13
20624;BME280;10471;42.736;23.346;2022-09-16T10:30:17;95196.00;;;23.69;83.54
20624;BME280;10471;42.736;23.346;2022-09-16T10:35:23;95239.91;;;21.54;100.00
20624;BME280;10471;42.736;23.346;2022-09-16T10:37:55;95220.38;;;21.10;100.00
20624;BME280;10471;42.736;23.346;2022-09-16T10:40:21;95228.06;;;20.97;100.00
20624;BME280;10471;42.736;23.346;2022-09-16T10:42:49;95240.78;;;20.72;100.00
20624;BME280;10471;42.736;23.346;2022-09-16T10:45:45;95251.72;;;20.40;100.00
20624;BME280;10471;42.736;23.346;2022-09-16T10:48:14;95238.13;;;20.21;100.00
20624;BME280;10471;42.736;23.346;2022-09-16T10:51:01;95225.22;;;20.11;100.00
20624;BME280;10471;42.736;23.346;2022-09-16T10:53:36;95225.34;;;20.03;100.00
20624;BME280;10471;42.736;23.346;2022-09-16T10:56:04;95213.00;;;19.98;100.00
20624;BME280;10471;42.736;23.346;2022-09-16T10:58:30;95195.56;;;20.04;100.00
20624;BME280;10471;42.736;23.346;2022-09-16T11:11:50;95126.22;;;20.54;100.00
20624;BME280;10471;42.736;23.346;2022-09-16T11:20:04;95098.75;;;21.49;100.00
20624;BME280;10471;42.736;23.346;2022-09-16T11:23:07;95072.72;;;22.03;100.00
20624;BME280;10471;42.736;23.346;2022-09-16T11:33:37;95069.50;;;23.21;100.00
20624;BME280;10471;42.736;23.346;2022-09-16T11:38:55;95038.28;;;23.39;100.00
20624;BME280;10471;42.736;23.346;2022-09-16T11:41:31;95041.97;;;23.27;100.00
20624;BME280;10471;42.736;23.346;2022-09-16T11:44:05;95041.28;;;23.08;100.00
20624;BME280;10471;42.736;23.346;2022-09-16T11:49:46;95023.78;;;23.21;100.00
20624;BME280;10471;42.736;23.346;2022-09-16T11:52:42;95030.75;;;23.51;100.00
20624;BME280;10471;42.736;23.346;2022-09-16T11:57:45;95002.38;;;24.19;100.00
20624;BME280;10471;42.736;23.346;2022-09-16T12:00:16;95010.84;;;24.54;100.00
20624;BME280;10471;42.736;23.346;2022-09-16T12:05:24;95029.22;;;24.09;100.00
20624;BME280;10471;42.736;23.346;2022-09-16T12:08:11;95033.88;;;24.15;100.00
20624;BME280;10471;42.736;23.346;2022-09-16T12:10:59;95035.25;;;23.99;100.00
20624;BME280;10471;42.736;23.346;2022-09-16T12:13:28;95030.06;;;24.16;99.11
20624;BME280;10471;42.736;23.346;2022-09-16T12:15:58;95026.44;;;24.38;96.03
20624;BME280;10471;42.736;23.346;2022-09-16T12:18:31;95037.53;;;24.66;85.64
20624;BME280;10471;42.736;23.346;2022-09-16T12:23:56;95035.78;;;24.44;87.42
20624;BME280;10471;42.736;23.346;2022-09-16T12:27:04;95031.28;;;24.22;90.14
20624;BME280;10471;42.736;23.346;2022-09-16T12:29:53;95024.69;;;24.16;90.62
20624;BME280;10471;42.736;23.346;2022-09-16T12:32:34;95024.09;;;24.00;86.83
20624;BME280;10471;42.736;23.346;2022-09-16T12:35:11;95019.94;;;23.74;92.74
20624;BME280;10471;42.736;23.346;2022-09-16T12:37:45;95030.81;;;23.55;96.30
20624;BME280;10471;42.736;23.346;2022-09-16T12:40:24;95029.88;;;23.44;98.96
20624;BME280;10471;42.736;23.346;2022-09-16T12:54:25;95068.63;;;23.13;98.81
20624;BME280;10471;42.736;23.346;2022-09-16T13:02:09;95100.34;;;23.27;98.19
20624;BME280;10471;42.736;23.346;2022-09-16T13:04:42;95110.47;;;23.11;99.23
20624;BME280;10471;42.736;23.346;2022-09-16T13:07:31;95120.81;;;23.09;100.00
20624;BME280;10471;42.736;23.346;2022-09-16T13:10:03;95123.50;;;22.90;100.00
20624;BME280;10471;42.736;23.346;2022-09-16T13:12:31;95127.75;;;22.69;100.00
20624;BME280;10471;42.736;23.346;2022-09-16T13:15:02;95131.78;;;22.59;100.00
20624;BME280;10471;42.736;23.346;2022-09-16T13:17:31;95138.28;;;22.58;100.00
20624;BME280;10471;42.736;23.346;2022-09-16T13:20:16;95149.34;;;22.35;100.00
20624;BME280;10471;42.736;23.346;2022-09-16T13:25:28;95153.53;;;21.98;100.00
20624;BME280;10471;42.736;23.346;2022-09-16T13:28:23;95148.81;;;21.76;100.00
20624;BME280;10471;42.736;23.346;2022-09-16T13:30:50;95146.13;;;21.76;100.00
20624;BME280;10471;42.736;23.346;2022-09-16T13:33:25;95131.69;;;21.65;100.00
20624;BME280;10471;42.736;23.346;2022-09-16T13:36:16;95124.63;;;21.57;100.00
20624;BME280;10471;42.736;23.346;2022-09-16T13:38:45;95114.63;;;21.54;100.00
20624;BME280;10471;42.736;23.346;2022-09-16T13:41:12;95099.38;;;21.58;100.00
20624;BME280;10471;42.736;23.346;2022-09-16T13:48:53;95027.56;;;21.71;100.00
20624;BME280;10471;42.736;23.346;2022-09-16T13:51:21;95004.06;;;21.83;100.00
20624;BME280;10471;42.736;23.346;2022-09-16T13:53:49;95015.22;;;21.85;100.00
20624;BME280;10471;42.736;23.346;2022-09-16T13:56:22;95000.31;;;21.87;100.00
20624;BME280;10471;42.736;23.346;2022-09-16T14:04:31;95002.53;;;22.23;100.00
20624;BME280;10471;42.736;23.346;2022-09-16T14:10:33;95005.38;;;22.11;100.00
20624;BME280;10471;42.736;23.346;2022-09-16T14:13:17;95002.13;;;22.02;100.00
20624;BME280;10471;42.736;23.346;2022-09-16T14:15:49;95028.75;;;21.92;100.00
20624;BME280;10471;42.736;23.346;2022-09-16T14:18:18;95064.66;;;21.84;100.00
20624;BME280;10471;42.736;23.346;2022-09-16T14:23:18;95078.78;;;22.00;100.00
20624;BME280;10471;42.736;23.346;2022-09-16T14:25:43;95063.16;;;22.05;100.00
20624;BME280;10471;42.736;23.346;2022-09-16T14:28:15;95048.41;;;22.15;100.00
20624;BME280;10471;42.736;23.346;2022-09-16T14:30:56;95037.38;;;22.20;100.00
20624;BME280;10471;42.736;23.346;2022-09-16T14:33:26;95030.94;;;22.24;100.00
20624;BME280;10471;42.736;23.346;2022-09-16T14:35:54;95024.53;;;22.29;100.00
20624;BME280;10471;42.736;23.346;2022-09-16T14:38:26;95021.13;;;22.32;100.00
20624;BME280;10471;42.736;23.346;2022-09-16T14:40:53;95019.28;;;22.36;100.00
20624;BME280;10471;42.736;23.346;2022-09-16T14:43:20;95012.81;;;22.40;100.00
20624;BME280;10471;42.736;23.346;2022-09-16T14:45:50;95025.91;;;22.42;100.00
20624;BME280;10471;42.736;23.346;2022-09-16T14:48:18;95028.03;;;22.33;100.00
20624;BME280;10471;42.736;23.346;2022-09-16T14:50:46;95026.44;;;22.28;100.00
20624;BME280;10471;42.736;23.346;2022-09-16T14:53:31;95023.81;;;22.13;100.00
20624;BME280;10471;42.736;23.346;2022-09-16T14:55:57;95022.25;;;22.12;100.00
20624;BME280;10471;42.736;23.346;2022-09-16T14:58:26;95019.53;;;22.08;100.00
20624;BME280;10471;42.736;23.346;2022-09-16T15:01:08;95016.75;;;22.05;100.00
20624;BME280;10471;42.736;23.346;2022-09-16T15:03:58;95035.56;;;22.05;100.00
20624;BME280;10471;42.736;23.346;2022-09-16T15:06:30;95037.97;;;22.10;100.00
20624;BME280;10471;42.736;23.346;2022-09-16T15:09:17;95036.41;;;22.09;100.00
20624;BME280;10471;42.736;23.346;2022-09-16T15:11:55;95035.03;;;21.99;100.00
20624;BME280;10471;42.736;23.346;2022-09-16T15:14:21;95039.22;;;21.97;100.00
20624;BME280;10471;42.736;23.346;2022-09-16T15:17:01;95028.75;;;21.92;100.00
20624;BME280;10471;42.736;23.346;2022-09-16T15:19:35;95019.53;;;21.89;100.00
20624;BME280;10471;42.736;23.346;2022-09-16T15:22:02;95024.88;;;21.89;100.00
20624;BME280;10471;42.736;23.346;2022-09-16T15:24:32;94987.88;;;21.79;100.00
20624;BME280;10471;42.736;23.346;2022-09-16T15:26:58;94960.00;;;21.84;100.00
20624;BME280;10471;42.736;23.346;2022-09-16T15:29:31;94961.19;;;21.86;100.00
20624;BME280;10471;42.736;23.346;2022-09-16T15:32:18;94971.28;;;21.93;100.00
20624;BME280;10471;42.736;23.346;2022-09-16T15:34:45;94952.84;;;21.91;100.00
20624;BME280;10471;42.736;23.346;2022-09-16T15:37:31;94956.00;;;21.97;100.00
20624;BME280;10471;42.736;23.346;2022-09-16T15:43:13;94970.22;;;21.78;100.00